Time;durP1;ratioP1;P1;durP2;ratioP2;P2;SDS_P1;SDS_P2;PMS_P1;PMS_P2;Temp;Humidity;BMP_temperature;BMP_pressure;BME280_temperature;BME280_humidity;BME280_pressure;Samples;Min_cycle;Max_cycle;Signal;HPM_P1;HPM_P2
2022/11/19 00:01:08;;;;;;;8.50;6.32;;;2.30;99.90;;;;;;5113625;28;20046;-70
2022/11/19 00:03:36;;;;;;;8.55;5.78;;;2.30;99.90;;;;;;5113367;28;20080;-70
2022/11/19 00:06:04;;;;;;;7.65;5.68;;;2.30;99.90;;;;;;5113660;28;20412;-70
2022/11/19 00:08:30;;;;;;;8.07;5.93;;;2.30;99.90;;;;;;5113867;28;20047;-70
2022/11/19 00:11:03;;;;;;;9.80;6.10;;;2.40;99.90;;;;;;5113366;28;20377;-70
2022/11/19 00:13:29;;;;;;;7.50;5.60;;;2.30;99.90;;;;;;5113311;28;20518;-70
2022/11/19 00:15:54;;;;;;;8.02;5.35;;;2.30;99.90;;;;;;5113570;28;20047;-70
2022/11/19 00:18:20;;;;;;;8.57;5.60;;;2.30;99.90;;;;;;5113288;28;20510;-70
2022/11/19 00:20:45;;;;;;;7.22;5.35;;;2.30;99.90;;;;;;5113595;28;20112;-70
2022/11/19 00:23:11;;;;;;;8.25;4.90;;;2.30;99.90;;;;;;5113171;28;20408;-70
2022/11/19 00:25:37;;;;;;;6.22;5.18;;;2.30;99.90;;;;;;5096210;28;20035;-70
2022/11/19 00:28:02;;;;;;;6.22;4.60;;;2.30;99.90;;;;;;5114082;28;20040;-70
2022/11/19 00:30:28;;;;;;;6.43;4.60;;;2.30;99.90;;;;;;5113098;28;20039;-70
2022/11/19 00:32:55;;;;;;;6.45;4.93;;;2.30;99.90;;;;;;5113165;28;20069;-70
2022/11/19 00:35:21;;;;;;;6.03;4.35;;;2.30;99.90;;;;;;5112412;28;20035;-70
2022/11/19 00:37:46;;;;;;;5.45;4.35;;;2.30;99.90;;;;;;5113146;28;20045;-70
2022/11/19 00:40:12;;;;;;;5.68;4.50;;;2.30;99.90;;;;;;5096319;28;20047;-70
2022/11/19 00:42:38;;;;;;;5.50;4.03;;;2.30;99.90;;;;;;5113010;28;20058;-70
2022/11/19 00:45:05;;;;;;;5.05;4.07;;;2.30;99.90;;;;;;5095777;28;20044;-69
2022/11/19 00:47:31;;;;;;;5.57;4.18;;;2.30;99.90;;;;;;5112857;28;20039;-70
2022/11/19 00:49:56;;;;;;;5.47;4.07;;;2.30;99.90;;;;;;5112962;28;20054;-70
2022/11/19 00:52:22;;;;;;;4.57;3.38;;;2.20;99.90;;;;;;5113099;28;20032;-70
2022/11/19 00:54:47;;;;;;;5.72;4.15;;;2.20;99.90;;;;;;5112997;28;20468;-70
2022/11/19 00:57:13;;;;;;;4.75;3.33;;;2.20;99.90;;;;;;5112862;28;20044;-70
2022/11/19 00:59:38;;;;;;;5.15;3.55;;;2.20;99.90;;;;;;5112988;28;20040;-70
2022/11/19 01:02:04;;;;;;;5.05;3.50;;;2.20;99.90;;;;;;5112576;28;20039;-69
2022/11/19 01:04:29;;;;;;;4.60;3.38;;;2.20;99.90;;;;;;5112726;28;20070;-70
2022/11/19 01:06:55;;;;;;;4.65;3.72;;;2.20;99.90;;;;;;5112828;28;20122;-70
2022/11/19 01:09:23;;;;;;;4.55;3.35;;;2.20;99.90;;;;;;5113015;28;20114;-70
2022/11/19 01:11:51;;;;;;;5.22;3.58;;;2.20;99.90;;;;;;5112636;28;20089;-70
2022/11/19 01:14:17;;;;;;;4.45;3.10;;;2.20;99.90;;;;;;5112893;28;20044;-70
2022/11/19 01:16:43;;;;;;;5.45;3.75;;;2.10;99.90;;;;;;5112705;28;20122;-70
2022/11/19 01:19:09;;;;;;;5.68;3.22;;;2.10;99.90;;;;;;5112816;28;20088;-70
2022/11/19 01:21:36;;;;;;;4.57;3.45;;;2.20;99.90;;;;;;5112437;28;20484;-69
2022/11/19 01:24:03;;;;;;;3.67;3.10;;;2.10;99.90;;;;;;5112588;28;20044;-70
2022/11/19 01:26:29;;;;;;;4.32;3.30;;;2.10;99.90;;;;;;5112511;28;20377;-70
2022/11/19 01:28:55;;;;;;;4.78;3.28;;;2.10;99.90;;;;;;5112683;28;20104;-70
2022/11/19 01:31:23;;;;;;;4.45;3.40;;;2.10;99.90;;;;;;5112712;28;20040;-69
2022/11/19 01:33:49;;;;;;;5.07;3.83;;;2.00;99.90;;;;;;5112714;28;20036;-70
2022/11/19 01:36:18;;;;;;;6.95;3.63;;;2.00;99.90;;;;;;5112391;28;20042;-70
2022/11/19 01:38:49;;;;;;;4.40;3.60;;;2.00;99.90;;;;;;5112563;28;20043;-70
2022/11/19 01:41:16;;;;;;;5.38;3.72;;;1.90;99.90;;;;;;5112622;28;20400;-70
2022/11/19 01:43:45;;;;;;;5.15;3.70;;;1.90;99.90;;;;;;5112335;28;20050;-70
2022/11/19 01:46:13;;;;;;;5.30;3.65;;;1.90;99.90;;;;;;5112543;28;20094;-70
2022/11/19 01:48:46;;;;;;;6.40;3.80;;;1.80;99.90;;;;;;5116222;28;20043;-70
2022/11/19 01:51:36;;;;;;;4.88;3.70;;;1.80;99.90;;;;;;5116238;28;20119;-70
2022/11/19 01:54:18;;;;;;;4.80;3.30;;;1.70;99.90;;;;;;5116255;28;20051;-69
2022/11/19 01:56:44;;;;;;;5.27;3.53;;;1.70;99.90;;;;;;5116391;28;20114;-70
2022/11/19 01:59:14;;;;;;;5.88;4.03;;;1.60;99.90;;;;;;5116288;28;20114;-70
2022/11/19 02:01:42;;;;;;;4.70;3.38;;;1.60;99.90;;;;;;5115880;28;20446;-70
2022/11/19 02:04:10;;;;;;;4.80;3.70;;;1.60;99.90;;;;;;5115961;28;20131;-70
2022/11/19 02:06:36;;;;;;;5.53;4.03;;;1.50;99.90;;;;;;5116183;28;20055;-71
2022/11/19 02:09:02;;;;;;;4.75;3.60;;;1.50;99.90;;;;;;5115912;28;20046;-71
2022/11/19 02:11:55;;;;;;;5.07;3.83;;;1.50;99.90;;;;;;5116028;28;20042;-70
2022/11/19 02:15:05;;;;;;;5.43;3.85;;;1.50;99.90;;;;;;5115882;28;20386;-70
2022/11/19 02:17:53;;;;;;;5.82;3.55;;;1.40;99.90;;;;;;5115709;28;20118;-70
2022/11/19 02:20:44;;;;;;;6.78;4.28;;;1.40;99.90;;;;;;5115748;28;20046;-70
2022/11/19 02:23:31;;;;;;;5.22;3.83;;;1.40;99.90;;;;;;5116898;28;20044;-70
2022/11/19 02:26:34;;;;;;;5.35;3.88;;;1.30;99.90;;;;;;5115388;28;20044;-70
2022/11/19 02:29:28;;;;;;;5.15;3.70;;;1.30;99.90;;;;;;5116264;28;20035;-70
2022/11/19 02:32:00;;;;;;;5.60;3.83;;;1.30;99.90;;;;;;5115271;28;20408;-69
2022/11/19 02:34:26;;;;;;;5.07;3.65;;;1.20;99.90;;;;;;5115604;28;20086;-70
2022/11/19 02:37:13;;;;;;;5.10;3.88;;;1.20;99.90;;;;;;5115490;28;20461;-70
2022/11/19 02:39:48;;;;;;;6.13;4.07;;;1.10;99.90;;;;;;5115161;28;20036;-70
2022/11/19 02:42:28;;;;;;;5.05;3.40;;;1.10;99.90;;;;;;5114910;28;20050;-69
2022/11/19 02:45:04;;;;;;;4.65;3.55;;;1.20;99.90;;;;;;5114881;28;20576;-69
2022/11/19 02:47:35;;;;;;;5.22;3.85;;;1.10;99.90;;;;;;5115267;28;20040;-70
2022/11/19 02:50:17;;;;;;;6.10;3.70;;;1.10;99.90;;;;;;5115691;28;20368;-70
2022/11/19 02:52:45;;;;;;;7.18;3.78;;;1.10;99.90;;;;;;5116015;28;20115;-69
2022/11/19 02:55:16;;;;;;;5.45;3.95;;;1.10;99.90;;;;;;5114717;28;20043;-70
2022/11/19 02:57:48;;;;;;;6.05;4.00;;;1.00;99.90;;;;;;5114690;28;20071;-70
2022/11/19 03:05:55;;;;;;;4.07;3.08;;;1.00;99.90;;;;;;5115606;28;20043;-69
2022/11/19 03:08:20;;;;;;;5.78;3.67;;;1.00;99.90;;;;;;5114342;28;20407;-70
2022/11/19 03:11:03;;;;;;;6.15;3.47;;;1.00;99.90;;;;;;5114257;28;20038;-70
2022/11/19 03:16:40;;;;;;;4.05;3.17;;;1.00;99.90;;;;;;5114302;28;20130;-69
2022/11/19 03:19:24;;;;;;;5.00;3.70;;;0.90;99.90;;;;;;5114106;28;20067;-70
2022/11/19 03:22:14;;;;;;;5.82;3.47;;;0.90;99.90;;;;;;5114307;28;20039;-69
2022/11/19 03:24:45;;;;;;;4.78;3.55;;;0.90;99.90;;;;;;5113997;28;20047;-69
2022/11/19 03:27:25;;;;;;;5.18;3.60;;;0.90;99.90;;;;;;5114025;28;20492;-70
2022/11/19 03:29:54;;;;;;;4.18;3.17;;;0.90;99.90;;;;;;5113894;28;20126;-70
2022/11/19 03:32:28;;;;;;;5.60;3.47;;;0.90;99.90;;;;;;5113780;28;20118;-69
2022/11/19 03:34:59;;;;;;;6.05;3.45;;;0.80;99.90;;;;;;5114063;28;20042;-70
2022/11/19 03:37:28;;;;;;;4.18;3.30;;;0.80;99.90;;;;;;5113662;28;20385;-70
2022/11/19 03:39:57;;;;;;;4.55;3.35;;;0.80;99.90;;;;;;5113665;28;20047;-70
2022/11/19 03:42:25;;;;;;;4.80;3.65;;;0.80;99.90;;;;;;5113410;28;20047;-69
2022/11/19 03:44:55;;;;;;;5.63;3.50;;;0.70;99.90;;;;;;5113434;28;20051;-69
2022/11/19 03:47:26;;;;;;;5.90;3.72;;;0.70;99.90;;;;;;5113542;28;20035;-69
2022/11/19 03:49:59;;;;;;;6.30;3.40;;;0.70;99.90;;;;;;5113477;28;20168;-70
2022/11/19 03:52:25;;;;;;;5.72;3.88;;;0.60;99.90;;;;;;5113351;28;20038;-69
2022/11/19 03:54:50;;;;;;;5.10;3.15;;;0.60;99.90;;;;;;5096357;28;20036;-69
2022/11/19 03:57:20;;;;;;;5.10;3.90;;;0.60;99.90;;;;;;5113223;28;20043;-69
2022/11/19 03:59:46;;;;;;;4.80;3.20;;;0.60;99.90;;;;;;5113265;28;20407;-69
2022/11/19 04:02:13;;;;;;;6.80;3.95;;;0.60;99.90;;;;;;5113150;28;20122;-70
2022/11/19 04:04:38;;;;;;;5.20;3.75;;;0.50;99.90;;;;;;5113193;28;20052;-70
2022/11/19 04:07:13;;;;;;;5.88;3.50;;;0.50;99.90;;;;;;5113203;28;20131;-70
2022/11/19 04:09:40;;;;;;;5.30;3.55;;;0.50;99.90;;;;;;5113332;28;20075;-70
2022/11/19 04:12:12;;;;;;;4.72;3.55;;;0.50;99.90;;;;;;5112682;28;20059;-70
2022/11/19 04:14:37;;;;;;;5.53;3.58;;;0.40;99.90;;;;;;5114307;28;20093;-70
2022/11/19 04:17:03;;;;;;;4.72;3.40;;;0.40;99.90;;;;;;5112985;28;20039;-70
2022/11/19 04:19:28;;;;;;;5.93;3.78;;;0.40;99.90;;;;;;5113027;28;20035;-70
2022/11/19 04:21:54;;;;;;;4.85;3.65;;;0.40;99.90;;;;;;5112837;28;20043;-70
2022/11/19 04:24:19;;;;;;;5.72;4.03;;;0.30;99.90;;;;;;5112760;28;20048;-70
2022/11/19 04:26:45;;;;;;;5.25;3.83;;;0.40;99.90;;;;;;5112844;28;20043;-70
2022/11/19 04:29:11;;;;;;;5.05;4.03;;;0.30;99.90;;;;;;5113080;28;20046;-70
2022/11/19 04:31:36;;;;;;;4.75;3.50;;;0.30;99.90;;;;;;5112771;28;20399;-70
2022/11/19 04:34:02;;;;;;;5.00;3.40;;;0.30;99.90;;;;;;5095878;28;20172;-70
2022/11/19 04:36:27;;;;;;;5.30;3.75;;;0.20;99.90;;;;;;5112774;28;20035;-70
2022/11/19 04:38:53;;;;;;;6.47;3.90;;;0.20;99.90;;;;;;5112908;28;20032;-70
2022/11/19 04:41:18;;;;;;;5.57;3.72;;;0.20;99.90;;;;;;5113051;28;20518;-70
2022/11/19 04:43:44;;;;;;;4.45;3.53;;;0.20;99.90;;;;;;5112870;28;20521;-70
2022/11/19 04:46:09;;;;;;;5.07;3.70;;;0.20;99.90;;;;;;5112945;28;20470;-70
2022/11/19 04:48:35;;;;;;;4.78;3.33;;;0.20;99.90;;;;;;5112715;28;20035;-70
2022/11/19 04:51:00;;;;;;;6.00;3.83;;;0.20;99.90;;;;;;5112974;28;20123;-70
2022/11/19 04:53:26;;;;;;;5.95;3.42;;;0.20;99.90;;;;;;5112563;28;20123;-70
2022/11/19 04:55:52;;;;;;;6.03;4.13;;;0.20;99.90;;;;;;5112485;28;20127;-70
2022/11/19 04:58:17;;;;;;;6.75;4.15;;;0.20;99.90;;;;;;5112497;28;20127;-70
2022/11/19 05:00:43;;;;;;;6.07;4.20;;;0.20;99.90;;;;;;5112500;28;20122;-70
2022/11/19 05:03:08;;;;;;;5.78;3.92;;;0.10;99.90;;;;;;5112614;28;20055;-71
2022/11/19 05:05:34;;;;;;;6.00;4.13;;;0.10;99.90;;;;;;5112313;28;20500;-71
2022/11/19 05:07:59;;;;;;;6.07;3.80;;;0.10;99.90;;;;;;5112432;28;20088;-71
2022/11/19 05:10:25;;;;;;;5.20;3.75;;;0.10;99.90;;;;;;5112403;28;20043;-71
2022/11/19 05:12:50;;;;;;;6.72;4.40;;;0.10;99.90;;;;;;5112271;28;20126;-70
2022/11/19 05:15:16;;;;;;;5.70;3.78;;;0.10;99.90;;;;;;5112647;28;20055;-69
2022/11/19 05:17:43;;;;;;;4.63;3.50;;;0.00;99.90;;;;;;5112469;28;20428;-70
2022/11/19 05:20:08;;;;;;;6.30;3.70;;;0.00;99.90;;;;;;5095616;28;20496;-70
2022/11/19 05:22:34;;;;;;;7.30;4.20;;;0.00;99.90;;;;;;5097404;28;20040;-70
2022/11/19 05:24:59;;;;;;;5.35;3.92;;;0.00;99.90;;;;;;5116395;28;20043;-70
2022/11/19 05:27:25;;;;;;;5.78;4.38;;;0.00;99.90;;;;;;5116676;28;20040;-70
2022/11/19 05:29:50;;;;;;;5.35;4.13;;;0.00;99.90;;;;;;5116270;28;20140;-70
2022/11/19 05:32:16;;;;;;;6.05;3.97;;;-0.10;99.90;;;;;;5116113;28;20119;-70
2022/11/19 05:34:41;;;;;;;6.93;4.15;;;0.00;99.90;;;;;;5116473;28;20048;-70
2022/11/19 05:37:07;;;;;;;5.35;3.92;;;-0.10;99.90;;;;;;5116222;28;20108;-70
2022/11/19 05:39:32;;;;;;;6.47;4.20;;;-0.10;99.90;;;;;;5116125;28;20039;-70
2022/11/19 05:41:58;;;;;;;5.63;4.00;;;-0.20;99.90;;;;;;5115716;28;20048;-70
2022/11/19 05:44:24;;;;;;;6.00;3.95;;;-0.20;99.90;;;;;;5115987;28;20043;-70
2022/11/19 05:46:50;;;;;;;6.70;4.72;;;-0.20;99.90;;;;;;5116296;28;20127;-70
2022/11/19 05:49:15;;;;;;;6.05;4.40;;;-0.20;99.90;;;;;;5115906;28;20075;-70
2022/11/19 05:51:41;;;;;;;6.97;4.70;;;-0.20;99.90;;;;;;5115908;28;20038;-70
2022/11/19 05:54:06;;;;;;;6.43;4.25;;;-0.20;99.90;;;;;;5116096;28;20035;-70
2022/11/19 05:56:32;;;;;;;6.97;4.70;;;-0.20;99.90;;;;;;5115769;28;20103;-70
2022/11/19 05:58:58;;;;;;;6.47;4.90;;;-0.30;99.90;;;;;;5115707;28;20035;-70
2022/11/19 06:01:24;;;;;;;9.85;5.15;;;-0.30;99.90;;;;;;5115583;28;20042;-70
2022/11/19 06:03:50;;;;;;;5.90;4.45;;;-0.30;99.90;;;;;;5115576;28;20065;-69
2022/11/19 06:06:16;;;;;;;6.72;5.05;;;-0.30;99.90;;;;;;5115582;28;20381;-70
2022/11/19 06:08:41;;;;;;;6.70;4.75;;;-0.40;99.90;;;;;;5115752;28;20128;-70
2022/11/19 06:11:46;;;;;;;8.98;5.18;;;-0.30;99.90;;;;;;5115405;28;20039;-70
2022/11/19 06:13:52;;;;;;;6.03;4.68;;;-0.30;99.90;;;;;;5115538;28;20036;-70
2022/11/19 06:16:18;;;;;;;7.60;5.35;;;-0.30;99.90;;;;;;5115585;28;20484;-70
2022/11/19 06:18:43;;;;;;;6.88;5.25;;;-0.40;99.90;;;;;;5115605;28;20559;-70
2022/11/19 06:21:09;;;;;;;8.00;5.60;;;-0.40;99.90;;;;;;5115206;28;20523;-70
2022/11/19 06:23:34;;;;;;;7.60;5.18;;;-0.40;99.90;;;;;;5115052;28;20120;-70
2022/11/19 06:26:00;;;;;;;6.50;5.40;;;-0.40;99.90;;;;;;5115028;28;20054;-70
2022/11/19 06:28:25;;;;;;;7.70;5.22;;;-0.40;99.90;;;;;;5115129;28;20038;-70
2022/11/19 06:30:51;;;;;;;7.05;5.20;;;-0.40;99.90;;;;;;5115025;28;20035;-70
2022/11/19 06:33:16;;;;;;;7.28;5.70;;;-0.40;99.90;;;;;;5114108;28;20115;-70
2022/11/19 06:35:42;;;;;;;7.00;5.43;;;-0.50;99.90;;;;;;5114970;28;20039;-70
2022/11/19 06:38:07;;;;;;;8.18;5.60;;;-0.40;99.90;;;;;;5115018;28;20142;-70
2022/11/19 06:40:33;;;;;;;8.30;5.60;;;-0.50;99.90;;;;;;5116449;28;20118;-70
2022/11/19 06:42:58;;;;;;;7.68;5.70;;;-0.50;99.90;;;;;;5114745;28;20071;-70
2022/11/19 06:45:24;;;;;;;7.82;5.88;;;-0.50;99.90;;;;;;5114948;28;20054;-70
2022/11/19 06:47:49;;;;;;;8.88;6.45;;;-0.50;99.90;;;;;;5114833;28;20511;-70
2022/11/19 06:50:15;;;;;;;7.32;5.97;;;-0.50;99.90;;;;;;5114708;28;20035;-70
2022/11/19 06:52:41;;;;;;;7.68;5.75;;;-0.50;99.90;;;;;;5114860;28;20126;-69
2022/11/19 06:55:07;;;;;;;7.60;5.70;;;-0.50;99.90;;;;;;5114841;28;20515;-70
2022/11/19 06:57:32;;;;;;;9.55;6.63;;;-0.60;99.90;;;;;;5114628;28;20043;-70
2022/11/19 06:59:58;;;;;;;8.15;5.93;;;-0.60;99.90;;;;;;5114753;28;20043;-70
2022/11/19 07:02:23;;;;;;;8.27;6.30;;;-0.60;99.90;;;;;;5114754;28;20050;-69
2022/11/19 07:04:49;;;;;;;8.55;6.50;;;-0.60;99.90;;;;;;5114379;28;20039;-70
2022/11/19 07:07:14;;;;;;;9.20;6.80;;;-0.50;99.90;;;;;;5114330;28;20059;-70
2022/11/19 07:09:40;;;;;;;7.90;6.68;;;-0.60;99.90;;;;;;5114396;28;20054;-70
2022/11/19 07:12:06;;;;;;;9.63;6.60;;;-0.60;99.90;;;;;;5114524;28;20032;-72
2022/11/19 07:14:32;;;;;;;9.32;6.13;;;-0.60;99.90;;;;;;5114670;28;20035;-70
2022/11/19 07:16:57;;;;;;;8.73;6.40;;;-0.60;99.90;;;;;;5097377;28;20104;-70
2022/11/19 07:19:23;;;;;;;8.70;6.68;;;-0.60;99.90;;;;;;5114434;28;20043;-70
2022/11/19 07:21:48;;;;;;;10.18;7.13;;;-0.60;99.90;;;;;;5114835;28;20046;-70
2022/11/19 07:24:16;;;;;;;8.85;6.53;;;-0.60;99.90;;;;;;5114740;28;20127;-70
2022/11/19 07:26:42;;;;;;;8.50;6.40;;;-0.60;99.90;;;;;;5114195;28;20032;-70
2022/11/19 07:29:10;;;;;;;8.45;6.30;;;-0.60;99.90;;;;;;5114767;28;20104;-70
2022/11/19 07:31:35;;;;;;;8.63;6.63;;;-0.60;99.90;;;;;;5114245;28;20114;-70
2022/11/19 07:34:04;;;;;;;9.65;6.85;;;-0.60;99.90;;;;;;5114215;28;20048;-70
2022/11/19 07:36:30;;;;;;;8.13;6.32;;;-0.60;99.90;;;;;;5113914;28;20048;-70
2022/11/19 07:38:56;;;;;;;8.80;6.50;;;-0.60;99.90;;;;;;5114252;28;20039;-70
2022/11/19 07:44:06;;;;;;;11.15;6.65;;;-0.60;99.90;;;;;;5115209;28;20040;-70
2022/11/19 07:46:31;;;;;;;8.90;7.10;;;-0.60;99.90;;;;;;5113878;28;20489;-70
2022/11/19 07:48:58;;;;;;;9.45;7.25;;;-0.60;99.90;;;;;;5113805;28;20036;-70
2022/11/19 07:51:24;;;;;;;9.07;6.90;;;-0.60;99.90;;;;;;5113686;28;20473;-69
2022/11/19 07:53:50;;;;;;;8.52;6.75;;;-0.60;99.90;;;;;;5113695;28;20108;-70
2022/11/19 07:56:16;;;;;;;9.35;6.78;;;-0.60;99.90;;;;;;5113679;28;20035;-70
2022/11/19 07:58:42;;;;;;;9.57;7.07;;;-0.60;99.90;;;;;;5113984;28;20039;-70
2022/11/19 08:01:09;;;;;;;9.70;6.85;;;-0.60;99.90;;;;;;5113371;28;20416;-70
2022/11/19 08:03:35;;;;;;;9.52;6.60;;;-0.50;99.90;;;;;;5113721;28;20078;-70
2022/11/19 08:06:05;;;;;;;11.90;7.45;;;-0.50;99.90;;;;;;5113412;28;20071;-70
2022/11/19 08:08:31;;;;;;;9.68;7.03;;;-0.50;99.90;;;;;;5113436;28;20487;-70
2022/11/19 08:11:01;;;;;;;8.95;6.97;;;-0.50;99.90;;;;;;5113511;28;20429;-70
2022/11/19 08:13:27;;;;;;;8.43;7.43;;;-0.50;99.90;;;;;;5113579;28;20484;-70
2022/11/19 08:15:58;;;;;;;9.40;6.82;;;-0.50;99.90;;;;;;5113460;28;20043;-70
2022/11/19 08:18:24;;;;;;;9.00;6.63;;;-0.40;99.90;;;;;;5113361;28;20043;-70
2022/11/19 08:20:49;;;;;;;9.77;6.78;;;-0.40;99.90;;;;;;5113501;28;20050;-70
2022/11/19 08:23:15;;;;;;;11.10;7.57;;;-0.40;99.90;;;;;;5113452;28;20043;-70
2022/11/19 08:25:44;;;;;;;9.20;7.07;;;-0.40;99.90;;;;;;5113166;28;20452;-70
2022/11/19 08:28:10;;;;;;;8.77;6.95;;;-0.40;99.90;;;;;;5113055;28;20039;-70
2022/11/19 08:30:38;;;;;;;9.85;7.82;;;-0.40;99.90;;;;;;5113025;28;20040;-70
2022/11/19 08:33:04;;;;;;;8.52;7.30;;;-0.30;99.90;;;;;;5113207;28;20050;-70
2022/11/19 08:35:29;;;;;;;10.68;8.18;;;-0.30;99.90;;;;;;5112993;28;20039;-70
2022/11/19 08:37:57;;;;;;;9.38;6.50;;;-0.30;99.90;;;;;;5113034;28;20047;-70
2022/11/19 08:40:24;;;;;;;9.32;7.22;;;-0.30;99.90;;;;;;5112969;28;20089;-70
2022/11/19 08:42:59;;;;;;;8.50;6.60;;;-0.20;99.90;;;;;;5112946;28;20170;-70
2022/11/19 08:45:33;;;;;;;8.88;7.10;;;-0.20;99.90;;;;;;5112769;28;20049;-70
2022/11/19 08:48:01;;;;;;;8.55;6.70;;;-0.20;99.90;;;;;;5112842;28;20560;-70
2022/11/19 08:50:28;;;;;;;9.65;7.03;;;-0.10;99.90;;;;;;5095945;28;20032;-70
2022/11/19 08:53:01;;;;;;;9.80;6.60;;;-0.10;99.90;;;;;;5112584;28;20078;-70
2022/11/19 08:55:30;;;;;;;8.35;6.63;;;0.00;99.90;;;;;;5114049;28;20044;-70
2022/11/19 08:58:04;;;;;;;11.48;6.50;;;0.00;99.90;;;;;;5112352;28;20128;-70
2022/11/19 09:00:32;;;;;;;9.95;6.78;;;0.10;99.90;;;;;;5112935;28;20044;-71
2022/11/19 09:02:57;;;;;;;8.20;6.30;;;0.10;99.90;;;;;;5112687;28;20039;-70
2022/11/19 09:05:23;;;;;;;8.00;6.65;;;0.10;99.90;;;;;;5112709;28;20043;-70
2022/11/19 09:07:49;;;;;;;8.00;6.63;;;0.10;99.90;;;;;;5112466;28;20096;-70
2022/11/19 09:10:15;;;;;;;10.02;7.03;;;0.20;99.90;;;;;;5095641;28;20071;-70
2022/11/19 09:12:41;;;;;;;12.02;6.28;;;0.20;99.90;;;;;;5112927;28;20488;-70
2022/11/19 09:15:07;;;;;;;10.25;5.82;;;0.30;99.90;;;;;;5112850;28;20040;-70
2022/11/19 09:17:34;;;;;;;8.77;6.55;;;0.30;99.90;;;;;;5113356;28;20082;-70
2022/11/19 09:19:59;;;;;;;8.27;6.35;;;0.40;99.90;;;;;;5112978;28;20084;-70
2022/11/19 09:22:25;;;;;;;8.90;6.82;;;0.40;99.90;;;;;;5112391;28;20403;-70
2022/11/19 09:24:51;;;;;;;8.90;6.72;;;0.40;99.90;;;;;;5112537;28;20043;-70
2022/11/19 09:27:16;;;;;;;8.57;6.53;;;0.50;99.90;;;;;;5112627;28;20569;-70
2022/11/19 09:29:42;;;;;;;8.88;6.65;;;0.50;99.90;;;;;;5112422;28;20038;-70
2022/11/19 09:32:07;;;;;;;9.63;6.90;;;0.50;99.90;;;;;;5112375;28;20120;-70
2022/11/19 09:34:34;;;;;;;9.23;6.45;;;0.60;99.90;;;;;;5112639;28;20043;-70
2022/11/19 09:37:00;;;;;;;9.00;6.70;;;0.60;99.90;;;;;;5112253;28;20047;-71
2022/11/19 09:39:25;;;;;;;8.57;7.05;;;0.60;99.90;;;;;;5112186;28;20043;-71
2022/11/19 09:42:12;;;;;;;8.15;5.95;;;0.70;99.90;;;;;;5112394;28;20043;-70
2022/11/19 09:44:44;;;;;;;8.32;6.47;;;0.70;99.90;;;;;;5112181;28;20048;-70
2022/11/19 09:47:29;;;;;;;9.88;7.35;;;0.80;99.90;;;;;;5095174;28;20035;-70
2022/11/19 09:50:12;;;;;;;7.38;5.97;;;0.80;99.90;;;;;;5112528;28;20028;-70
2022/11/19 09:52:47;;;;;;;8.25;5.95;;;0.80;99.90;;;;;;5112415;28;20052;-70
2022/11/19 09:55:18;;;;;;;8.50;6.45;;;0.80;99.90;;;;;;5112442;28;20040;-70
2022/11/19 09:57:52;;;;;;;9.82;7.13;;;0.90;99.90;;;;;;5112300;28;20039;-71
2022/11/19 10:00:22;;;;;;;7.80;6.10;;;0.90;99.90;;;;;;5112426;28;20127;-71
2022/11/19 10:02:48;;;;;;;8.45;6.50;;;1.00;99.90;;;;;;5112000;28;20042;-69
2022/11/19 10:05:21;;;;;;;8.30;6.15;;;1.00;99.90;;;;;;5112097;28;20073;-70
2022/11/19 10:08:13;;;;;;;7.60;5.80;;;1.10;99.90;;;;;;5112346;28;20039;-70
2022/11/19 10:10:51;;;;;;;8.20;6.13;;;1.10;99.90;;;;;;5115844;28;20043;-70
2022/11/19 10:13:30;;;;;;;7.07;5.78;;;1.20;99.90;;;;;;5116120;28;20089;-69
2022/11/19 10:16:22;;;;;;;8.48;6.22;;;1.20;99.90;;;;;;5115751;28;20043;-70
2022/11/19 10:19:12;;;;;;;8.45;6.00;;;1.30;99.90;;;;;;5098699;28;20548;-70
2022/11/19 10:21:49;;;;;;;6.90;5.55;;;1.30;99.80;;;;;;5115467;28;20043;-70
2022/11/19 10:24:18;;;;;;;9.10;5.75;;;1.30;99.40;;;;;;5115848;28;20132;-70
2022/11/19 10:26:53;;;;;;;7.25;5.72;;;1.30;99.10;;;;;;5115763;28;20031;-70
2022/11/19 10:29:22;;;;;;;7.82;6.22;;;1.40;99.00;;;;;;5115543;28;20209;-70
2022/11/19 10:31:50;;;;;;;6.75;5.35;;;1.40;99.20;;;;;;5115241;28;20104;-70
2022/11/19 10:34:29;;;;;;;8.73;5.03;;;1.40;98.80;;;;;;5115698;28;20040;-70
2022/11/19 10:37:10;;;;;;;6.60;5.10;;;1.50;98.40;;;;;;5115791;28;20054;-70
2022/11/19 10:40:14;;;;;;;8.02;5.28;;;1.50;98.60;;;;;;5115193;28;20043;-70
2022/11/19 10:42:46;;;;;;;7.72;5.10;;;1.60;98.40;;;;;;5101289;28;20527;-70
2022/11/19 10:45:22;;;;;;;6.97;5.15;;;1.60;98.50;;;;;;5115242;28;20071;-70
2022/11/19 10:48:00;;;;;;;6.47;4.70;;;1.70;98.10;;;;;;5114942;28;20531;-70
2022/11/19 10:50:26;;;;;;;6.43;5.22;;;1.80;97.90;;;;;;5115491;28;20551;-70
2022/11/19 10:53:12;;;;;;;7.38;5.78;;;1.80;98.00;;;;;;5115242;28;20092;-70
2022/11/19 10:55:48;;;;;;;6.63;4.88;;;1.90;97.80;;;;;;5115095;28;20043;-70
2022/11/19 10:58:17;;;;;;;7.78;5.35;;;1.90;97.70;;;;;;5114901;28;20504;-70
2022/11/19 11:00:42;;;;;;;7.28;5.68;;;2.00;97.80;;;;;;5114797;28;20045;-70
2022/11/19 11:03:26;;;;;;;6.60;5.10;;;2.00;97.70;;;;;;5114913;28;20126;-70
2022/11/19 11:05:56;;;;;;;7.28;5.28;;;2.10;97.10;;;;;;5114866;28;20606;-70
2022/11/19 11:08:23;;;;;;;6.60;5.28;;;2.20;97.00;;;;;;5115776;28;20040;-70
2022/11/19 11:10:50;;;;;;;6.65;5.30;;;2.20;97.10;;;;;;5115175;28;20070;-70
2022/11/19 11:16:36;;;;;;;7.03;5.05;;;2.30;96.40;;;;;;5114461;28;20047;-70
2022/11/19 11:19:01;;;;;;;7.22;5.10;;;2.40;96.80;;;;;;5114548;28;20051;-70
2022/11/19 11:21:31;;;;;;;7.38;5.47;;;2.40;96.60;;;;;;5114445;28;20040;-70
2022/11/19 11:23:58;;;;;;;7.28;5.20;;;2.50;96.30;;;;;;5114723;28;20057;-70
2022/11/19 11:26:27;;;;;;;7.55;5.57;;;2.60;96.50;;;;;;5097559;28;20078;-70
2022/11/19 11:29:16;;;;;;;6.65;4.97;;;2.70;96.50;;;;;;5114693;28;20484;-70
2022/11/19 11:31:44;;;;;;;6.35;4.90;;;2.80;96.40;;;;;;5097616;28;20496;-70
2022/11/19 11:34:24;;;;;;;7.78;5.68;;;3.00;96.10;;;;;;5098267;28;20396;-70
2022/11/19 11:36:51;;;;;;;6.53;5.07;;;3.20;95.50;;;;;;5114782;28;20047;-71
2022/11/19 11:39:43;;;;;;;6.72;5.10;;;3.30;95.60;;;;;;5114774;28;20035;-71
2022/11/19 11:42:11;;;;;;;5.90;4.70;;;3.90;93.80;;;;;;5104011;28;20065;-70
2022/11/19 11:44:46;;;;;;;6.15;5.03;;;4.60;94.00;;;;;;5115122;28;20047;-70
2022/11/19 11:47:18;;;;;;;6.43;5.20;;;4.70;92.80;;;;;;5114777;28;20039;-70
2022/11/19 11:49:47;;;;;;;6.82;5.28;;;4.50;92.70;;;;;;5115648;28;20488;-70
2022/11/19 11:52:18;;;;;;;9.88;4.90;;;4.20;92.70;;;;;;5114365;28;20040;-71
2022/11/19 11:55:26;;;;;;;7.43;4.93;;;4.00;92.80;;;;;;5114630;28;20043;-70
2022/11/19 11:58:04;;;;;;;6.63;5.10;;;3.70;92.60;;;;;;5101192;28;20556;-70
2022/11/19 12:00:40;;;;;;;5.32;4.38;;;3.60;93.40;;;;;;5114390;28;20494;-70
2022/11/19 12:03:14;;;;;;;7.38;4.95;;;3.50;93.60;;;;;;5114274;28;20047;-70
2022/11/19 12:06:11;;;;;;;5.95;4.25;;;3.90;93.50;;;;;;5114072;28;20047;-70
2022/11/19 12:09:15;;;;;;;5.63;4.57;;;5.70;92.40;;;;;;5114814;28;20063;-70
2022/11/19 12:11:53;;;;;;;7.07;4.30;;;8.60;90.00;;;;;;5114716;28;20051;-70
2022/11/19 12:14:40;;;;;;;6.28;4.45;;;10.70;80.40;;;;;;5115075;28;20079;-71
2022/11/19 12:17:29;;;;;;;6.00;4.30;;;12.30;72.40;;;;;;5114714;28;20099;-71
2022/11/19 12:20:23;;;;;;;5.13;4.00;;;13.60;65.40;;;;;;5064204;28;20059;-71
2022/11/19 12:23:25;;;;;;;5.88;3.90;;;14.40;61.40;;;;;;5114359;28;20047;-71
2022/11/19 12:26:19;;;;;;;6.95;3.97;;;15.20;57.20;;;;;;5113625;28;20050;-71
2022/11/19 12:29:22;;;;;;;5.18;4.07;;;15.80;53.60;;;;;;5113739;28;20042;-71
2022/11/19 12:32:23;;;;;;;5.53;4.05;;;16.30;52.50;;;;;;5112888;28;20043;-71
2022/11/19 12:35:02;;;;;;;5.35;3.63;;;16.70;52.80;;;;;;5108749;28;20055;-72
2022/11/19 12:37:41;;;;;;;5.60;3.70;;;16.90;49.60;;;;;;5113657;28;20408;-72
2022/11/19 12:40:30;;;;;;;4.68;3.42;;;15.90;50.00;;;;;;5113528;28;20126;-72
2022/11/19 12:43:23;;;;;;;4.13;3.60;;;14.20;50.80;;;;;;5113475;28;20043;-71
2022/11/19 12:45:56;;;;;;;4.38;3.75;;;12.60;54.00;;;;;;5113511;28;20096;-71
2022/11/19 12:48:51;;;;;;;4.78;3.47;;;11.10;58.30;;;;;;5113901;28;20036;-71
2022/11/19 12:51:38;;;;;;;5.90;4.03;;;9.90;58.60;;;;;;5113710;28;20492;-71
2022/11/19 12:54:09;;;;;;;7.03;3.88;;;8.80;61.10;;;;;;5112998;28;20470;-71
2022/11/19 12:57:05;;;;;;;5.80;3.78;;;8.10;63.90;;;;;;5113474;28;20106;-71
2022/11/19 12:59:37;;;;;;;4.50;3.50;;;7.70;64.70;;;;;;5096385;28;20040;-71
2022/11/19 13:02:12;;;;;;;6.45;3.90;;;7.30;66.10;;;;;;5113012;28;20036;-71
2022/11/19 13:04:44;;;;;;;4.88;3.60;;;7.40;67.00;;;;;;5113141;28;20055;-71
2022/11/19 13:07:38;;;;;;;4.82;3.42;;;8.20;66.40;;;;;;5113534;28;20412;-71
2022/11/19 13:10:27;;;;;;;4.82;3.20;;;9.90;63.50;;;;;;5093551;28;20101;-71
2022/11/19 13:12:55;;;;;;;4.85;3.30;;;11.40;60.40;;;;;;5113138;28;20051;-71
2022/11/19 13:15:34;;;;;;;4.18;2.83;;;12.60;58.30;;;;;;5113311;28;20100;-71
2022/11/19 13:18:07;;;;;;;4.70;2.75;;;13.70;55.30;;;;;;5113579;28;20123;-71
2022/11/19 13:20:50;;;;;;;4.05;2.95;;;14.50;53.90;;;;;;5113571;28;20114;-71
2022/11/19 13:23:24;;;;;;;4.32;3.03;;;15.30;52.20;;;;;;5113059;28;20048;-71
2022/11/19 13:26:10;;;;;;;3.45;2.88;;;15.70;50.80;;;;;;5113330;28;20519;-71
2022/11/19 13:28:55;;;;;;;5.18;3.45;;;16.10;50.20;;;;;;5096356;28;20039;-71